Time;durP1;ratioP1;P1;durP2;ratioP2;P2;SDS_P1;SDS_P2;PMS_P1;PMS_P2;Temp;Humidity;BMP_temperature;BMP_pressure;BME280_temperature;BME280_humidity;BME280_pressure;Samples;Min_cycle;Max_cycle;Signal;HPM_P1;HPM_P2
2023/01/01 00:01:21;;;;;;;11.38;7.47;;;;;;;14.87;54.88;100633.53;5054238;28;20036;-59
2023/01/01 00:03:54;;;;;;;15.57;7.28;;;;;;;14.87;54.58;100631.75;5057004;28;20052;-60
2023/01/01 00:06:20;;;;;;;17.30;6.90;;;;;;;14.79;54.59;100635.47;5061834;28;20114;-57
2023/01/01 00:08:46;;;;;;;16.17;6.97;;;;;;;14.68;55.08;100633.16;5046985;28;20044;-57
2023/01/01 00:11:12;;;;;;;18.23;5.95;;;;;;;14.61;55.92;100642.88;5061509;28;20034;-58
2023/01/01 00:13:39;;;;;;;9.15;5.10;;;;;;;14.59;55.27;100652.47;5057616;28;20071;-57
2023/01/01 00:16:11;;;;;;;9.48;5.03;;;;;;;14.60;55.23;100638.56;5051391;28;20040;-58
2023/01/01 00:18:37;;;;;;;8.65;3.63;;;;;;;14.53;55.53;100641.38;5057632;28;20080;-57
2023/01/01 00:21:05;;;;;;;9.45;4.22;;;;;;;14.57;55.17;100646.44;5060445;28;20081;-58
2023/01/01 00:23:30;;;;;;;9.40;4.45;;;;;;;14.60;55.27;100643.75;5060786;28;20067;-58
2023/01/01 00:25:56;;;;;;;13.15;5.38;;;;;;;14.53;55.84;100638.78;5058212;28;20135;-58
2023/01/01 00:28:22;;;;;;;9.95;3.95;;;;;;;14.44;55.91;100652.88;5041987;28;20499;-57
2023/01/01 00:30:47;;;;;;;10.32;3.30;;;;;;;14.41;55.76;100657.28;5053452;28;20036;-57
2023/01/01 00:33:12;;;;;;;8.95;3.20;;;;;;;14.30;56.38;100665.34;5020086;28;20498;-58
2023/01/01 00:35:38;;;;;;;6.35;2.95;;;;;;;14.33;55.88;100669.63;5058678;28;20067;-57
2023/01/01 00:38:03;;;;;;;6.97;2.92;;;;;;;14.39;55.61;100680.75;5066420;28;20044;-58
2023/01/01 00:40:29;;;;;;;5.65;2.28;;;;;;;14.31;56.27;100692.19;5038983;28;20571;-58
2023/01/01 00:42:54;;;;;;;6.07;2.30;;;;;;;14.26;56.70;100689.72;5059269;28;20060;-57
2023/01/01 00:45:20;;;;;;;4.30;2.20;;;;;;;14.22;56.59;100687.22;5059055;28;20151;-58
2023/01/01 00:47:45;;;;;;;5.88;1.98;;;;;;;14.23;56.66;100673.31;5041536;28;20040;-58
2023/01/01 00:50:11;;;;;;;6.15;2.38;;;;;;;14.18;56.80;100683.84;5056865;28;20589;-58
2023/01/01 00:52:36;;;;;;;3.70;2.33;;;;;;;14.11;56.87;100683.13;5053425;28;20040;-58
2023/01/01 00:55:01;;;;;;;8.02;2.60;;;;;;;14.18;56.65;100673.44;5036389;28;20425;-58
2023/01/01 00:57:27;;;;;;;4.45;1.85;;;;;;;14.24;56.14;100662.03;5052394;28;20041;-58
2023/01/01 00:59:52;;;;;;;4.57;2.45;;;;;;;14.19;56.42;100662.13;5056560;28;20040;-58
2023/01/01 01:02:17;;;;;;;4.97;1.60;;;;;;;14.25;55.51;100649.00;5047528;28;20104;-57
2023/01/01 01:04:43;;;;;;;3.90;1.80;;;;;;;14.36;55.15;100638.34;5054696;28;20032;-58
2023/01/01 01:07:08;;;;;;;5.45;2.50;;;;;;;14.40;54.70;100637.38;5050981;28;20678;-58
2023/01/01 01:09:34;;;;;;;4.90;1.75;;;;;;;14.33;55.24;100648.81;5052855;28;20047;-58
2023/01/01 01:11:59;;;;;;;4.18;1.52;;;;;;;14.38;55.06;100652.19;5054625;28;20107;-58
2023/01/01 01:14:24;;;;;;;5.75;1.88;;;;;;;14.54;54.52;100645.69;5054099;28;20040;-58
2023/01/01 01:16:50;;;;;;;5.90;1.80;;;;;;;14.64;54.21;100635.00;5059496;28;20036;-58
2023/01/01 01:19:17;;;;;;;3.17;1.63;;;;;;;14.63;53.92;100638.47;5053736;28;20158;-58
2023/01/01 01:21:45;;;;;;;2.05;1.38;;;;;;;14.62;54.03;100643.72;5040036;28;20028;-57
2023/01/01 01:24:11;;;;;;;3.83;1.70;;;;;;;14.57;54.18;100654.25;5055684;28;20069;-58
2023/01/01 01:26:37;;;;;;;4.90;1.90;;;;;;;14.58;54.17;100666.38;5052406;28;20040;-58
2023/01/01 01:29:03;;;;;;;4.60;1.80;;;;;;;14.55;54.07;100676.00;5055314;28;20036;-57
2023/01/01 01:31:30;;;;;;;3.03;1.70;;;;;;;14.52;54.31;100689.06;5053076;28;20082;-58
2023/01/01 01:33:56;;;;;;;3.38;1.85;;;;;;;14.46;54.50;100682.28;5054039;28;20037;-58
2023/01/01 01:36:22;;;;;;;5.88;1.90;;;;;;;14.42;54.37;100693.69;5038916;28;20037;-58
2023/01/01 01:38:47;;;;;;;2.55;1.60;;;;;;;14.39;54.71;100700.69;5052414;28;20051;-58
2023/01/01 01:41:16;;;;;;;4.25;1.90;;;;;;;14.32;55.37;100699.09;5038423;28;20060;-58
2023/01/01 01:43:41;;;;;;;3.85;1.65;;;;;;;14.29;55.20;100704.38;5055460;28;20501;-58
2023/01/01 01:46:21;;;;;;;2.22;1.67;;;;;;;14.27;54.87;100707.03;5056702;28;20064;-58
2023/01/01 01:48:49;;;;;;;8.23;1.92;;;;;;;14.24;55.39;100711.44;5056140;28;20123;-58
2023/01/01 01:51:21;;;;;;;3.33;1.67;;;;;;;14.19;55.30;100711.53;5057922;28;20035;-61
2023/01/01 01:53:54;;;;;;;4.15;1.70;;;;;;;14.13;54.82;100713.44;5054769;28;20492;-56
2023/01/01 01:56:42;;;;;;;6.93;1.60;;;;;;;14.08;55.27;100718.75;5048818;28;20033;-57
2023/01/01 01:59:08;;;;;;;4.78;1.52;;;;;;;14.06;55.07;100716.19;5052698;28;20041;-57
2023/01/01 02:01:33;;;;;;;3.33;1.60;;;;;;;14.10;54.71;100722.16;5048355;28;20047;-58
2023/01/01 02:04:01;;;;;;;4.38;2.08;;;;;;;14.05;54.78;100729.19;5049800;28;20075;-57
2023/01/01 02:06:28;;;;;;;5.78;1.70;;;;;;;13.94;55.46;100742.47;5055442;28;20116;-57
2023/01/01 02:08:56;;;;;;;3.47;1.48;;;;;;;13.87;55.74;100746.06;5057143;28;20021;-57
2023/01/01 02:11:22;;;;;;;4.55;1.63;;;;;;;14.03;54.74;100734.44;5057365;28;20036;-57
2023/01/01 02:13:48;;;;;;;4.05;2.00;;;;;;;14.03;54.82;100728.41;5058840;28;20051;-57
2023/01/01 02:16:30;;;;;;;4.47;1.55;;;;;;;14.10;53.89;100723.00;5057034;28;20040;-57
2023/01/01 02:18:58;;;;;;;3.88;1.90;;;;;;;14.22;53.54;100702.84;5055233;28;20040;-57
2023/01/01 02:21:32;;;;;;;5.18;1.90;;;;;;;14.41;52.92;100696.31;5059696;28;20040;-58
2023/01/01 02:24:26;;;;;;;4.85;1.60;;;;;;;14.35;52.74;100692.09;5057350;28;20020;-60
2023/01/01 02:27:15;;;;;;;3.95;1.88;;;;;;;14.38;52.64;100689.44;5049093;28;20021;-57
2023/01/01 02:29:41;;;;;;;8.73;2.30;;;;;;;14.35;52.95;100697.28;5053928;28;20512;-58
2023/01/01 02:32:19;;;;;;;5.10;1.80;;;;;;;14.40;52.65;100692.84;5057300;28;20040;-57
2023/01/01 02:35:33;;;;;;;4.45;1.48;;;;;;;14.37;52.89;100705.03;5047410;28;20029;-57
2023/01/01 02:37:49;;;;;;;4.07;1.55;;;;;;;14.51;52.32;100683.00;5054191;28;20036;-60
2023/01/01 02:40:17;;;;;;;3.72;1.55;;;;;;;14.47;52.31;100689.22;5057821;28;20068;-58
2023/01/01 02:42:43;;;;;;;2.10;1.10;;;;;;;14.57;51.90;100682.03;5054191;28;20159;-58
2023/01/01 02:45:10;;;;;;;3.33;1.48;;;;;;;14.64;51.77;100678.34;5053497;28;20052;-61
2023/01/01 02:47:36;;;;;;;3.10;1.60;;;;;;;14.64;51.71;100683.56;5053468;28;20040;-61
2023/01/01 02:50:10;;;;;;;3.83;1.45;;;;;;;14.71;51.58;100679.91;5050538;28;20743;-60
2023/01/01 02:52:54;;;;;;;3.17;1.60;;;;;;;14.75;51.61;100676.31;5056842;28;20667;-61
2023/01/01 02:55:51;;;;;;;3.42;1.42;;;;;;;14.78;51.33;100676.22;5048371;28;20394;-61
2023/01/01 03:01:27;;;;;;;4.60;1.38;;;;;;;14.74;51.97;100692.84;5048693;28;20535;-62
2023/01/01 03:04:01;;;;;;;4.53;1.70;;;;;;;14.76;51.66;100685.84;5055936;28;20064;-61
2023/01/01 03:06:37;;;;;;;4.95;1.80;;;;;;;14.79;51.51;100692.69;5054209;28;20083;-62
2023/01/01 03:09:23;;;;;;;2.25;1.60;;;;;;;14.79;51.89;100688.34;5052097;28;20021;-62
2023/01/01 03:12:24;;;;;;;4.43;1.25;;;;;;;14.78;51.78;100697.06;5058662;28;20100;-62
2023/01/01 03:14:52;;;;;;;3.65;1.35;;;;;;;14.83;51.27;100687.41;5051613;28;20071;-61
2023/01/01 03:17:53;;;;;;;6.25;1.60;;;;;;;14.91;51.17;100688.03;5058590;28;20024;-62
2023/01/01 03:20:23;;;;;;;2.50;1.45;;;;;;;14.86;51.71;100687.31;5019593;28;20094;-62
2023/01/01 03:22:51;;;;;;;5.43;1.50;;;;;;;14.84;51.71;100683.03;5056328;28;20172;-62
2023/01/01 03:25:24;;;;;;;5.65;1.80;;;;;;;14.78;52.66;100691.03;5060888;28;20029;-62
2023/01/01 03:27:58;;;;;;;3.75;1.90;;;;;;;14.80;52.66;100692.69;5054446;28;20044;-62
2023/01/01 03:30:24;;;;;;;6.17;1.97;;;;;;;14.73;52.76;100714.53;5050676;28;20113;-63
2023/01/01 03:33:04;;;;;;;4.25;1.80;;;;;;;14.68;52.99;100718.16;5056339;28;20044;-61
2023/01/01 03:35:42;;;;;;;5.65;1.90;;;;;;;14.73;53.06;100727.53;5045510;28;20068;-62
2023/01/01 03:38:15;;;;;;;5.80;1.50;;;;;;;14.75;52.96;100736.16;5061965;28;20062;-62
2023/01/01 03:40:43;;;;;;;3.33;1.60;;;;;;;14.71;53.61;100739.75;5062115;28;20102;-62
2023/01/01 03:43:15;;;;;;;2.85;1.67;;;;;;;14.70;53.71;100748.44;5062810;28;20036;-61
2023/01/01 03:45:45;;;;;;;5.88;2.10;;;;;;;14.70;53.35;100742.38;5063349;28;20044;-62
2023/01/01 03:48:11;;;;;;;4.63;1.50;;;;;;;14.76;54.15;100742.22;5062232;28;20044;-61
2023/01/01 03:50:43;;;;;;;4.50;1.40;;;;;;;14.76;53.42;100734.41;5055121;28;20033;-61
2023/01/01 03:53:27;;;;;;;6.32;1.55;;;;;;;14.75;54.69;100746.56;5054686;28;20040;-62
2023/01/01 03:56:15;;;;;;;2.42;1.27;;;;;;;14.70;54.12;100744.97;5058449;28;20041;-62
2023/01/01 03:58:51;;;;;;;4.45;1.60;;;;;;;14.70;54.09;100752.78;5055958;28;20144;-62
2023/01/01 04:01:32;;;;;;;4.85;1.48;;;;;;;14.68;54.25;100752.84;5061432;28;20440;-62
2023/01/01 04:04:00;;;;;;;4.53;1.63;;;;;;;14.68;54.24;100745.03;5052957;28;20041;-61
2023/01/01 04:06:25;;;;;;;4.53;1.48;;;;;;;14.72;53.85;100740.63;5055990;28;20063;-61
2023/01/01 04:08:54;;;;;;;4.65;1.73;;;;;;;14.77;53.91;100731.78;5058286;28;20533;-61
2023/01/01 04:14:08;;;;;;;4.82;1.63;;;;;;;14.78;54.14;100743.88;5054991;28;20139;-62
2023/01/01 04:16:33;;;;;;;4.38;1.40;;;;;;;14.80;54.63;100747.31;5059118;28;20163;-62
2023/01/01 04:18:58;;;;;;;2.83;1.58;;;;;;;14.81;54.23;100754.22;5053922;28;20148;-62
2023/01/01 04:21:24;;;;;;;3.30;1.50;;;;;;;14.86;54.13;100759.31;5043823;28;20166;-62
2023/01/01 04:23:49;;;;;;;2.65;1.42;;;;;;;14.82;54.67;100755.94;5056606;28;20568;-61
2023/01/01 04:26:15;;;;;;;2.22;1.25;;;;;;;14.79;54.55;100755.16;5039619;28;20033;-62
2023/01/01 04:28:41;;;;;;;3.88;1.55;;;;;;;14.75;55.47;100766.56;5054871;28;20036;-62
2023/01/01 04:31:08;;;;;;;3.45;1.27;;;;;;;14.73;55.44;100766.56;5049872;28;20774;-62
2023/01/01 04:33:33;;;;;;;5.68;1.73;;;;;;;14.75;55.32;100775.19;5053390;28;20048;-62
2023/01/01 04:36:07;;;;;;;7.78;1.92;;;;;;;14.71;55.48;100780.53;5059670;28;20024;-61
2023/01/01 04:38:33;;;;;;;6.85;1.77;;;;;;;14.68;55.70;100789.25;5051868;28;20127;-62
2023/01/01 04:41:00;;;;;;;2.92;1.30;;;;;;;14.63;56.18;100791.13;5058701;28;20032;-61
2023/01/01 04:43:25;;;;;;;6.60;2.03;;;;;;;14.60;56.28;100792.03;5057131;28;20037;-62
2023/01/01 04:45:59;;;;;;;4.45;1.40;;;;;;;14.69;56.06;100787.53;5056805;28;20040;-61
2023/01/01 04:48:26;;;;;;;4.72;1.52;;;;;;;14.71;55.79;100790.94;5049969;28;20045;-62
2023/01/01 04:51:00;;;;;;;8.45;1.40;;;;;;;14.64;55.80;100795.41;5057987;28;20024;-61
2023/01/01 04:53:29;;;;;;;4.70;1.60;;;;;;;14.63;56.50;100796.34;5050175;28;20033;-62
2023/01/01 04:55:54;;;;;;;5.45;1.83;;;;;;;14.64;56.63;100805.81;5054625;28;22172;-62
2023/01/01 04:58:20;;;;;;;5.82;1.30;;;;;;;14.57;57.00;100832.91;5054507;28;20067;-62
2023/01/01 05:00:49;;;;;;;4.82;1.58;;;;;;;14.56;56.82;100826.84;5052739;28;20139;-63
2023/01/01 05:03:16;;;;;;;4.00;1.52;;;;;;;14.53;57.05;100832.13;5058147;28;20037;-61
2023/01/01 05:05:41;;;;;;;3.70;1.23;;;;;;;14.53;57.08;100824.31;5056696;28;20652;-61
2023/01/01 05:08:06;;;;;;;6.43;1.88;;;;;;;14.59;56.90;100821.56;5053013;28;20047;-61
2023/01/01 05:10:32;;;;;;;5.65;1.80;;;;;;;14.55;57.57;100837.25;5052755;28;20046;-62
2023/01/01 05:12:57;;;;;;;2.67;1.30;;;;;;;14.53;57.11;100826.91;5057289;28;20052;-61
2023/01/01 05:15:22;;;;;;;5.18;1.60;;;;;;;14.54;57.55;100815.59;5052563;28;20547;-61
2023/01/01 05:17:48;;;;;;;4.10;1.48;;;;;;;14.50;57.96;100821.78;5055271;28;20036;-61
2023/01/01 05:20:13;;;;;;;3.92;1.67;;;;;;;14.52;57.58;100829.53;5060434;28;20023;-62
2023/01/01 05:22:38;;;;;;;10.98;1.73;;;;;;;14.56;57.34;100831.19;5058443;28;20901;-62
2023/01/01 05:25:04;;;;;;;4.35;2.20;;;;;;;14.51;58.00;100851.25;5054946;28;20051;-62
2023/01/01 05:27:30;;;;;;;2.60;1.38;;;;;;;14.49;57.60;100842.59;5053651;28;20071;-62
2023/01/01 05:29:55;;;;;;;3.08;1.70;;;;;;;14.51;58.14;100856.44;5051322;28;20052;-61
2023/01/01 05:32:20;;;;;;;4.15;1.42;;;;;;;14.48;58.08;100848.72;5032458;28;20029;-62
2023/01/01 05:34:46;;;;;;;3.25;1.80;;;;;;;14.46;58.13;100866.94;5055457;28;20052;-62
2023/01/01 05:37:11;;;;;;;5.45;1.35;;;;;;;14.46;58.96;100873.88;5035833;28;20028;-61
2023/01/01 05:39:37;;;;;;;5.60;1.38;;;;;;;14.48;58.24;100872.97;5053643;28;20773;-61
2023/01/01 05:42:02;;;;;;;5.03;1.75;;;;;;;14.46;58.60;100873.88;5050853;28;20089;-61
2023/01/01 05:44:27;;;;;;;4.50;1.45;;;;;;;14.44;58.87;100881.75;5056231;28;20028;-62
2023/01/01 05:46:53;;;;;;;3.88;1.60;;;;;;;14.41;58.62;100866.19;5055529;28;20029;-62
2023/01/01 05:49:18;;;;;;;5.15;1.50;;;;;;;14.38;59.33;100884.47;5052613;28;20519;-62
2023/01/01 05:51:43;;;;;;;4.03;1.63;;;;;;;14.46;58.78;100872.16;5060235;28;20493;-62
2023/01/01 05:54:09;;;;;;;4.22;1.65;;;;;;;14.42;58.83;100888.72;5037772;28;20400;-61
2023/01/01 05:56:35;;;;;;;2.53;1.23;;;;;;;14.41;59.29;100902.59;5053583;28;20032;-62
2023/01/01 05:59:00;;;;;;;3.35;1.42;;;;;;;14.41;59.25;100904.34;5053481;28;20108;-62
2023/01/01 06:01:28;;;;;;;5.82;1.75;;;;;;;14.40;59.53;100905.22;5052325;28;20122;-62
2023/01/01 06:03:55;;;;;;;5.25;1.40;;;;;;;14.38;59.35;100917.41;5051434;28;20040;-62
2023/01/01 06:06:30;;;;;;;5.63;1.50;;;;;;;14.36;59.67;100934.78;5053260;28;20037;-62
2023/01/01 06:08:56;;;;;;;;;;;;;;;14.30;59.96;100930.56;5051593;28;20040;-61
2023/01/01 06:11:23;;;;;;;3.83;1.65;;;;;;;14.28;60.11;100941.84;5053572;28;20416;-61
2023/01/01 06:13:52;;;;;;;4.28;1.20;;;;;;;14.28;59.90;100947.06;5059919;28;20067;-61
2023/01/01 06:16:17;;;;;;;3.03;1.30;;;;;;;14.26;60.29;100960.09;5059223;28;20106;-60
2023/01/01 06:18:42;;;;;;;3.97;1.50;;;;;;;14.26;60.17;100957.50;5056344;28;20493;-60
2023/01/01 06:21:10;;;;;;;7.20;1.50;;;;;;;14.26;60.23;100959.25;5059252;28;20055;-60
2023/01/01 06:23:36;;;;;;;6.20;1.63;;;;;;;14.26;60.39;100949.69;5049231;28;20051;-61
2023/01/01 06:26:06;;;;;;;3.92;1.40;;;;;;;14.25;60.61;100945.38;5053771;28;20036;-61
2023/01/01 06:28:31;;;;;;;4.75;1.33;;;;;;;14.23;60.66;100954.97;5055255;28;20470;-60
2023/01/01 06:31:02;;;;;;;6.53;1.70;;;;;;;14.20;60.90;100959.38;5057528;28;20032;-60
2023/01/01 06:33:28;;;;;;;3.88;1.58;;;;;;;14.20;60.85;100952.44;5052548;28;21000;-60
2023/01/01 06:35:53;;;;;;;5.72;1.35;;;;;;;14.23;60.77;100964.50;5049670;28;20124;-61
2023/01/01 06:38:19;;;;;;;5.47;1.48;;;;;;;14.18;61.11;100979.34;5049668;28;20042;-61
2023/01/01 06:41:03;;;;;;;3.42;1.48;;;;;;;14.17;60.74;100962.88;5052280;28;20047;-60
2023/01/01 06:43:30;;;;;;;3.70;1.53;;;;;;;14.16;60.97;100970.72;5051560;28;20102;-63
2023/01/01 06:46:06;;;;;;;4.03;1.52;;;;;;;14.12;61.32;100993.31;5055045;28;20043;-61
2023/01/01 06:48:34;;;;;;;6.85;1.45;;;;;;;14.14;61.20;100994.13;5050471;28;20086;-61
2023/01/01 06:51:12;;;;;;;4.88;1.92;;;;;;;14.11;61.79;100994.19;5056998;28;20594;-61
2023/01/01 06:53:39;;;;;;;5.10;1.30;;;;;;;14.09;61.74;100998.59;5049737;28;20033;-60
2023/01/01 06:56:05;;;;;;;4.45;1.58;;;;;;;14.07;61.69;101005.53;5054222;28;20036;-61
2023/01/01 06:58:31;;;;;;;4.05;1.83;;;;;;;14.17;61.53;101009.69;5055194;28;20075;-61
2023/01/01 07:01:12;;;;;;;3.05;1.55;;;;;;;14.21;60.89;100995.75;5055761;28;20155;-60
2023/01/01 07:03:39;;;;;;;5.38;1.80;;;;;;;14.23;61.03;100993.09;5046055;28;20570;-60
2023/01/01 07:06:05;;;;;;;3.90;2.10;;;;;;;14.23;61.23;100986.16;5054687;28;20028;-60
2023/01/01 07:08:31;;;;;;;4.85;1.85;;;;;;;14.25;61.36;100997.38;5051402;28;20067;-60
2023/01/01 07:10:56;;;;;;;4.82;1.60;;;;;;;14.24;61.46;101002.63;5059564;28;20036;-60
2023/01/01 07:13:26;;;;;;;5.72;1.60;;;;;;;14.21;61.53;101008.75;5059119;28;20258;-60
2023/01/01 07:15:51;;;;;;;4.28;1.52;;;;;;;14.26;61.34;101011.25;5059307;28;20048;-61
2023/01/01 07:18:18;;;;;;;4.82;1.67;;;;;;;14.22;61.52;101012.22;5060912;28;20173;-60
2023/01/01 07:20:48;;;;;;;4.25;1.70;;;;;;;14.24;61.73;101010.44;5057732;28;20660;-60
2023/01/01 07:23:13;;;;;;;2.72;1.70;;;;;;;14.23;61.73;101017.38;5063451;28;20052;-60
2023/01/01 07:25:41;;;;;;;6.60;1.75;;;;;;;14.26;61.52;101016.44;5051868;28;20458;-60
2023/01/01 07:28:06;;;;;;;6.43;2.05;;;;;;;14.25;61.58;101030.31;5052839;28;20036;-61
2023/01/01 07:30:32;;;;;;;6.85;2.25;;;;;;;14.25;61.93;101031.19;5037963;28;20047;-60
2023/01/01 07:32:57;;;;;;;7.45;1.80;;;;;;;14.26;61.62;101030.31;5058972;28;20086;-61
2023/01/01 07:35:22;;;;;;;3.08;1.70;;;;;;;14.29;61.72;101029.38;5049584;28;20112;-60
2023/01/01 07:37:48;;;;;;;4.22;1.63;;;;;;;14.27;62.16;101039.84;5039482;28;20853;-60
2023/01/01 07:40:13;;;;;;;9.23;2.33;;;;;;;14.25;61.85;101053.72;5060129;28;20404;-60
2023/01/01 07:42:38;;;;;;;8.38;1.58;;;;;;;14.27;62.27;101055.44;5062799;28;20037;-60
2023/01/01 07:45:04;;;;;;;6.97;2.45;;;;;;;14.27;61.81;101054.56;5059349;28;23805;-60
2023/01/01 07:47:30;;;;;;;7.28;1.60;;;;;;;14.26;62.27;101060.66;5060585;28;20043;-65
2023/01/01 07:49:55;;;;;;;4.95;1.58;;;;;;;14.25;62.38;101077.13;5060702;28;20139;-61
2023/01/01 07:52:20;;;;;;;5.53;1.80;;;;;;;14.24;62.72;101088.44;5054904;28;20040;-61
2023/01/01 07:54:46;;;;;;;5.43;1.50;;;;;;;14.23;62.85;101094.50;5059096;28;20048;-62
2023/01/01 07:57:11;;;;;;;4.50;2.00;;;;;;;14.26;62.65;101097.03;5059149;28;20147;-60
2023/01/01 07:59:37;;;;;;;6.07;1.80;;;;;;;14.24;62.60;101110.09;5058280;28;20032;-61
2023/01/01 08:02:03;;;;;;;6.15;1.98;;;;;;;14.22;63.09;101119.63;5055611;28;20135;-60
2023/01/01 08:04:28;;;;;;;4.75;1.80;;;;;;;14.21;63.16;101117.94;5056081;28;20733;-60
2023/01/01 08:06:54;;;;;;;4.80;1.98;;;;;;;14.19;63.28;101124.88;5055661;28;20044;-61
2023/01/01 08:09:19;;;;;;;8.43;1.85;;;;;;;14.25;62.78;101103.13;5037927;28;20120;-61
2023/01/01 08:11:45;;;;;;;4.75;1.65;;;;;;;14.29;62.83;101099.59;5055957;28;20024;-61
2023/01/01 08:14:11;;;;;;;4.78;1.73;;;;;;;14.29;62.96;101117.78;5059273;28;20036;-64
2023/01/01 08:16:37;;;;;;;4.22;1.85;;;;;;;14.28;63.38;101127.34;5060087;28;20041;-64
2023/01/01 08:19:02;;;;;;;5.38;1.73;;;;;;;14.31;63.75;101121.22;5058041;28;20047;-60
2023/01/01 08:21:28;;;;;;;8.40;2.05;;;;;;;14.31;63.05;101109.06;5053558;28;20056;-60
2023/01/01 08:23:53;;;;;;;4.82;1.63;;;;;;;14.36;62.92;101117.69;5039571;28;20088;-61
2023/01/01 08:26:30;;;;;;;6.68;1.50;;;;;;;14.40;63.29;101121.09;5058974;28;20775;-62
2023/01/01 08:28:56;;;;;;;6.50;1.90;;;;;;;14.42;63.62;101133.19;5038261;28;20090;-62
2023/01/01 08:31:22;;;;;;;7.43;1.70;;;;;;;14.43;63.58;101142.69;5053884;28;20052;-62
2023/01/01 08:33:47;;;;;;;6.05;2.45;;;;;;;14.45;63.49;101138.34;5055734;28;20040;-62
2023/01/01 08:36:15;;;;;;;5.90;2.20;;;;;;;14.50;63.50;101149.50;5055431;28;20036;-62
2023/01/01 08:38:41;;;;;;;5.78;1.98;;;;;;;14.58;63.60;101136.34;5057669;28;20028;-62
2023/01/01 08:41:06;;;;;;;6.53;2.45;;;;;;;14.71;63.62;101140.44;5058305;28;20041;-63
2023/01/01 08:43:31;;;;;;;8.77;2.00;;;;;;;14.70;63.40;101146.53;5054625;28;20036;-62
2023/01/01 08:45:56;;;;;;;7.25;2.15;;;;;;;14.71;63.54;101140.44;5055620;28;20038;-62
2023/01/01 08:48:22;;;;;;;4.03;1.77;;;;;;;14.70;63.90;101153.47;5054169;28;20133;-62
2023/01/01 08:50:59;;;;;;;6.38;1.88;;;;;;;14.71;63.74;101165.59;5051684;28;20043;-62
2023/01/01 08:53:28;;;;;;;5.95;1.88;;;;;;;14.70;64.16;101163.88;5057615;28;20032;-63
2023/01/01 08:55:59;;;;;;;5.35;1.60;;;;;;;14.72;64.28;101143.91;5054951;28;20106;-63
2023/01/01 08:58:25;;;;;;;9.57;1.92;;;;;;;14.78;64.15;101143.78;5053516;28;20687;-64
2023/01/01 09:00:51;;;;;;;7.93;2.00;;;;;;;14.79;64.35;101133.34;5055645;28;20032;-62
2023/01/01 09:03:17;;;;;;;7.20;2.00;;;;;;;14.81;64.07;101128.94;5056275;28;20043;-61
2023/01/01 09:05:44;;;;;;;6.65;1.77;;;;;;;14.81;64.72;101135.94;5058498;28;20060;-62
2023/01/01 09:08:13;;;;;;;4.90;1.67;;;;;;;14.81;64.59;101152.38;5038224;28;20085;-63
2023/01/01 09:10:39;;;;;;;6.63;2.17;;;;;;;14.81;64.34;101147.16;5039084;28;20156;-62
2023/01/01 09:13:04;;;;;;;6.22;1.77;;;;;;;14.82;64.41;101155.84;5036156;28;20101;-62
2023/01/01 09:15:30;;;;;;;5.30;2.00;;;;;;;14.79;64.59;101169.78;5043796;28;20047;-62
2023/01/01 09:17:55;;;;;;;7.35;2.30;;;;;;;14.78;64.96;101168.03;5055137;28;20028;-61
2023/01/01 09:20:21;;;;;;;7.75;1.70;;;;;;;14.80;64.86;101175.84;5037420;28;20055;-63
2023/01/01 09:22:46;;;;;;;5.18;1.63;;;;;;;14.79;64.87;101172.38;5033245;28;20068;-64
2023/01/01 09:25:12;;;;;;;6.53;2.08;;;;;;;14.79;65.24;101181.94;5028264;28;20040;-62
2023/01/01 09:27:37;;;;;;;7.78;2.50;;;;;;;14.81;65.13;101180.16;5028380;28;20095;-58
2023/01/01 09:30:04;;;;;;;7.90;1.80;;;;;;;14.79;65.04;101184.53;5034151;28;20064;-58
2023/01/01 09:32:29;;;;;;;10.30;2.13;;;;;;;14.77;65.40;101201.94;5033776;28;20029;-58
2023/01/01 09:34:56;;;;;;;6.80;2.60;;;;;;;14.75;65.17;101209.75;5027930;28;20048;-64
2023/01/01 09:37:21;;;;;;;8.93;1.92;;;;;;;14.76;64.79;101213.22;5033537;28;20095;-64
2023/01/01 09:39:47;;;;;;;5.07;1.60;;;;;;;14.76;65.38;101227.09;5015647;28;20074;-61
2023/01/01 09:42:28;;;;;;;4.88;1.67;;;;;;;14.78;65.23;101222.69;5032413;28;21054;-62
2023/01/01 09:45:06;;;;;;;5.60;1.50;;;;;;;14.78;64.70;101225.31;5035188;28;20024;-61
2023/01/01 09:47:41;;;;;;;4.88;2.08;;;;;;;14.82;64.49;101232.19;5033862;28;20057;-58
2023/01/01 09:50:17;;;;;;;4.90;1.65;;;;;;;14.87;64.08;101222.53;5034447;28;20033;-58
2023/01/01 09:52:51;;;;;;;5.13;2.00;;;;;;;14.90;63.99;101221.66;5032612;28;20037;-62
2023/01/01 09:55:30;;;;;;;4.35;1.52;;;;;;;14.91;64.16;101224.19;5034270;28;20712;-59
2023/01/01 09:57:56;;;;;;;5.78;1.73;;;;;;;14.94;64.18;101225.88;5029155;28;20098;-59
2023/01/01 10:00:21;;;;;;;7.18;2.58;;;;;;;14.97;63.83;101218.03;5031666;28;20512;-59
2023/01/01 10:02:55;;;;;;;5.50;1.52;;;;;;;15.00;64.36;101221.44;5037394;28;20785;-59
2023/01/01 10:06:05;;;;;;;8.30;1.90;;;;;;;15.04;64.03;101219.63;5034440;28;20155;-59
2023/01/01 10:08:52;;;;;;;6.35;1.52;;;;;;;15.06;63.87;101226.50;5050451;28;20045;-58
2023/01/01 10:11:42;;;;;;;4.13;1.65;;;;;;;15.07;64.44;101223.03;5053481;28;20041;-59
2023/01/01 10:14:29;;;;;;;6.72;1.70;;;;;;;15.06;64.32;101226.50;5034511;28;20043;-59
2023/01/01 10:16:57;;;;;;;5.40;1.73;;;;;;;15.05;64.65;101239.53;5056119;28;20048;-62
2023/01/01 10:19:26;;;;;;;8.63;2.33;;;;;;;15.06;64.47;101223.91;5036229;28;20041;-62
2023/01/01 10:21:56;;;;;;;7.68;2.40;;;;;;;15.07;64.52;101225.63;5055120;28;20155;-62
2023/01/01 10:24:21;;;;;;;7.60;1.85;;;;;;;15.12;64.17;101226.41;5053013;28;21898;-59
2023/01/01 10:26:51;;;;;;;3.67;1.45;;;;;;;15.15;64.43;101222.88;5054659;28;20029;-59
2023/01/01 10:29:43;;;;;;;9.38;1.70;;;;;;;15.21;64.26;101215.81;5054605;28;20024;-59
2023/01/01 10:32:26;;;;;;;5.30;1.70;;;;;;;15.27;64.01;101222.63;5042935;28;20504;-59
2023/01/01 10:34:52;;;;;;;5.90;1.67;;;;;;;15.26;63.71;101212.22;5053077;28;20040;-59
2023/01/01 10:37:18;;;;;;;6.05;1.13;;;;;;;15.29;63.60;101207.81;5052175;28;20064;-58
2023/01/01 10:39:45;;;;;;;7.03;1.92;;;;;;;15.30;63.32;101203.47;5054904;28;20068;-58
2023/01/01 10:42:14;;;;;;;5.03;1.70;;;;;;;15.28;63.69;101202.66;5052267;28;20036;-62
2023/01/01 10:44:41;;;;;;;5.45;1.95;;;;;;;15.27;63.57;101208.75;5055590;28;20996;-61
2023/01/01 10:47:28;;;;;;;6.57;1.40;;;;;;;15.25;63.26;101215.75;5055751;28;20409;-61
2023/01/01 10:49:55;;;;;;;4.97;1.77;;;;;;;15.23;63.51;101205.34;5053588;28;20020;-62
2023/01/01 10:52:25;;;;;;;7.07;1.67;;;;;;;15.23;63.70;101197.53;5057154;28;20527;-61
2023/01/01 10:54:50;;;;;;;6.93;1.52;;;;;;;15.22;63.39;101182.81;5057683;28;22155;-61
2023/01/01 10:57:34;;;;;;;6.60;1.75;;;;;;;15.21;63.65;101188.91;5054743;28;20093;-62
2023/01/01 11:00:26;;;;;;;5.80;1.50;;;;;;;15.19;63.86;101191.53;5056631;28;20020;-62
2023/01/01 11:03:17;;;;;;;6.43;1.60;;;;;;;15.17;63.79;101182.03;5055283;28;20029;-62
2023/01/01 11:06:03;;;;;;;6.30;1.77;;;;;;;15.14;63.38;101174.28;5043725;28;20040;-61
2023/01/01 11:08:31;;;;;;;23.90;10.45;;;;;;;15.12;64.07;101168.25;5033077;28;20060;-61
2023/01/01 11:10:59;;;;;;;7.68;2.17;;;;;;;15.11;63.53;101150.91;5031260;28;20044;-61
2023/01/01 11:13:26;;;;;;;8.38;1.77;;;;;;;15.12;63.53;101150.03;5047278;28;20040;-61
2023/01/01 11:15:51;;;;;;;5.45;1.35;;;;;;;15.06;64.19;101155.34;5043440;28;20063;-61
2023/01/01 11:18:20;;;;;;;9.43;1.90;;;;;;;15.02;64.05;101170.19;5029619;28;20041;-61
2023/01/01 11:20:56;;;;;;;3.65;1.42;;;;;;;15.01;64.62;101165.88;5037176;28;20087;-61
2023/01/01 11:23:28;;;;;;;6.28;2.28;;;;;;;15.00;63.91;101184.13;5054874;28;20381;-62
2023/01/01 11:25:57;;;;;;;7.72;1.30;;;;;;;14.98;64.48;101191.97;5054319;28;20040;-61
2023/01/01 11:28:23;;;;;;;4.07;1.60;;;;;;;14.96;63.85;101198.09;5056677;28;20029;-61
2023/01/01 11:31:02;;;;;;;3.45;1.88;;;;;;;14.93;64.08;101205.97;5056962;28;20032;-62
2023/01/01 11:33:32;;;;;;;4.25;1.48;;;;;;;14.92;64.27;101207.72;5050381;28;20059;-62
2023/01/01 11:35:58;;;;;;;7.82;1.98;;;;;;;14.92;63.92;101205.09;5035637;28;20021;-62
2023/01/01 11:38:24;;;;;;;3.70;1.70;;;;;;;14.93;64.39;101217.22;5030375;28;20033;-62
2023/01/01 11:40:55;;;;;;;6.70;1.90;;;;;;;14.92;63.78;101214.66;5035216;28;20115;-62